createdAt,value
2023-02-12T00:01:28.704Z,11.64
2023-02-12T00:03:58.057Z,11.39
2023-02-12T00:06:27.788Z,11.29
2023-02-12T00:08:56.897Z,11.24
2023-02-12T00:11:35.486Z,11.08
2023-02-12T00:14:05.650Z,11.05
2023-02-12T00:16:32.646Z,11.11
2023-02-12T00:19:00.892Z,11.29
2023-02-12T00:21:30.991Z,11.31
2023-02-12T00:24:00.439Z,11.34
2023-02-12T00:26:27.416Z,11.16
2023-02-12T00:28:57.840Z,11.36
2023-02-12T00:31:28.263Z,11.32
2023-02-12T00:33:56.424Z,11.32
2023-02-12T00:36:26.815Z,11.22
2023-02-12T00:38:55.298Z,11.30
2023-02-12T00:41:23.255Z,11.40
2023-02-12T00:43:51.821Z,11.23
2023-02-12T00:46:19.493Z,11.40
2023-02-12T00:48:48.995Z,11.40
2023-02-12T00:51:18.195Z,11.32
2023-02-12T00:53:47.496Z,11.18
2023-02-12T00:56:16.755Z,11.19
2023-02-12T00:58:43.819Z,11.26
2023-02-12T01:01:10.910Z,11.42
2023-02-12T01:03:40.342Z,11.43
2023-02-12T01:06:07.807Z,11.50
2023-02-12T01:08:34.921Z,11.25
2023-02-12T01:11:06.745Z,11.30
2023-02-12T01:13:37.317Z,11.26
2023-02-12T01:16:10.658Z,11.39
2023-02-12T01:18:38.831Z,11.18
2023-02-12T01:21:15.264Z,11.18
2023-02-12T01:23:43.386Z,11.16
2023-02-12T01:26:14.016Z,11.06
2023-02-12T01:28:43.525Z,11.00
2023-02-12T01:31:21.120Z,10.86
2023-02-12T01:33:50.290Z,10.96
2023-02-12T01:36:17.431Z,11.04
2023-02-12T01:38:44.957Z,11.03
2023-02-12T01:41:19.410Z,10.88
2023-02-12T01:44:08.545Z,11.08
2023-02-12T01:46:35.797Z,11.20
2023-02-12T01:49:05.653Z,11.29
2023-02-12T01:51:36.894Z,11.19
2023-02-12T01:54:11.409Z,11.20
2023-02-12T01:56:39.309Z,11.23
2023-02-12T01:59:06.568Z,11.23
2023-02-12T02:01:37.169Z,11.23
2023-02-12T02:04:17.838Z,11.27
2023-02-12T02:07:00.540Z,11.00
2023-02-12T02:09:34.425Z,11.08
2023-02-12T02:12:20.440Z,11.07
2023-02-12T02:14:53.451Z,11.24
2023-02-12T02:17:26.270Z,11.08
2023-02-12T02:20:30.906Z,10.99
2023-02-12T02:23:09.868Z,10.81
2023-02-12T02:26:09.472Z,10.83
2023-02-12T02:29:19.547Z,10.76
2023-02-12T02:32:03.589Z,10.87
2023-02-12T02:35:01.445Z,10.97
2023-02-12T02:38:02.134Z,10.87
2023-02-12T02:40:53.726Z,10.86
2023-02-12T02:43:44.736Z,10.90
2023-02-12T02:46:18.195Z,10.85
2023-02-12T02:48:55.820Z,10.90
2023-02-12T02:51:40.432Z,10.89
2023-02-12T02:54:35.021Z,11.07
2023-02-12T02:57:20.909Z,11.08
2023-02-12T03:00:07.786Z,11.19
2023-02-12T03:02:44.928Z,11.11
2023-02-12T03:05:27.292Z,11.18
2023-02-12T03:08:24.360Z,11.21
2023-02-12T03:11:09.401Z,11.20
2023-02-12T03:13:56.804Z,11.27
2023-02-12T03:16:33.027Z,11.28
2023-02-12T03:19:08.161Z,11.42
2023-02-12T03:21:47.466Z,11.40
2023-02-12T03:24:30.986Z,11.29
2023-02-12T03:27:13.709Z,11.28
2023-02-12T03:29:43.165Z,11.35
2023-02-12T03:32:44.335Z,11.29
2023-02-12T03:35:17.000Z,11.09
2023-02-12T03:38:01.837Z,10.94
2023-02-12T03:40:35.481Z,11.08
2023-02-12T03:43:17.321Z,11.01
2023-02-12T03:45:52.202Z,11.23
2023-02-12T03:48:34.110Z,11.14
2023-02-12T03:51:17.746Z,11.09
2023-02-12T03:53:44.889Z,11.11
2023-02-12T03:56:44.442Z,11.09
2023-02-12T03:59:12.208Z,10.98
2023-02-12T04:01:39.420Z,10.95
2023-02-12T04:04:11.253Z,10.99
2023-02-12T04:06:38.399Z,10.89
2023-02-12T04:09:10.653Z,10.99
2023-02-12T04:11:54.563Z,11.08
2023-02-12T04:14:43.870Z,11.16
2023-02-12T04:17:40.640Z,11.27
2023-02-12T04:21:08.861Z,11.22
2023-02-12T04:24:07.094Z,11.06
2023-02-12T04:27:23.281Z,11.19
2023-02-12T04:30:06.537Z,11.14
2023-02-12T04:32:58.338Z,11.06
2023-02-12T04:35:53.750Z,11.18
2023-02-12T04:38:57.787Z,10.98
2023-02-12T04:41:26.081Z,11.04
2023-02-12T04:43:55.529Z,10.95
2023-02-12T04:46:25.436Z,10.90
2023-02-12T04:48:58.766Z,10.90
2023-02-12T04:51:28.370Z,10.88
2023-02-12T04:53:55.430Z,10.73
2023-02-12T04:56:26.982Z,10.77
2023-02-12T04:58:57.707Z,10.87
2023-02-12T05:01:25.662Z,10.56
2023-02-12T05:03:55.181Z,10.50
2023-02-12T05:06:22.144Z,10.46
2023-02-12T05:08:53.688Z,10.47
2023-02-12T05:11:20.790Z,10.64
2023-02-12T05:13:54.129Z,10.66
2023-02-12T05:16:22.767Z,10.72
2023-02-12T05:18:52.034Z,10.82
2023-02-12T05:21:24.506Z,10.90
2023-02-12T05:23:51.458Z,10.86
2023-02-12T05:26:21.317Z,10.90
2023-02-12T05:28:48.401Z,11.02
2023-02-12T05:31:21.225Z,10.92
2023-02-12T05:33:50.042Z,10.94
2023-02-12T05:36:25.769Z,10.82
2023-02-12T05:38:57.577Z,10.78
2023-02-12T05:41:25.412Z,10.80
2023-02-12T05:43:55.431Z,10.95
2023-02-12T05:46:22.827Z,11.01
2023-02-12T05:48:52.170Z,10.90
2023-02-12T05:51:25.180Z,10.87
2023-02-12T05:53:57.217Z,10.69
2023-02-12T05:56:34.107Z,10.60
2023-02-12T05:59:10.067Z,10.50
2023-02-12T06:01:40.627Z,10.50
2023-02-12T06:04:16.661Z,10.38
2023-02-12T06:06:44.509Z,10.42
2023-02-12T06:09:13.217Z,10.37
2023-02-12T06:11:45.911Z,10.34
2023-02-12T06:14:17.343Z,10.54
2023-02-12T06:16:50.726Z,10.59
2023-02-12T06:19:25.270Z,10.55
2023-02-12T06:21:54.752Z,10.50
2023-02-12T06:24:26.115Z,10.53
2023-02-12T06:26:55.630Z,10.44
2023-02-12T06:29:26.287Z,10.68
2023-02-12T06:31:55.635Z,10.65
2023-02-12T06:34:25.271Z,10.57
2023-02-12T06:36:52.214Z,10.50
2023-02-12T06:39:19.154Z,10.46
2023-02-12T06:41:46.158Z,10.40
2023-02-12T06:44:13.706Z,10.50
2023-02-12T06:46:48.171Z,10.36
2023-02-12T06:49:21.329Z,10.14
2023-02-12T06:51:50.862Z,10.32
2023-02-12T06:54:18.549Z,10.32
2023-02-12T06:56:48.058Z,10.39
2023-02-12T06:59:21.148Z,10.40
2023-02-12T07:01:48.171Z,10.47
2023-02-12T07:04:15.319Z,10.58
2023-02-12T07:06:44.982Z,10.86
2023-02-12T07:09:14.588Z,10.60
2023-02-12T07:11:43.924Z,10.67
2023-02-12T07:14:17.802Z,10.71
2023-02-12T07:16:47.380Z,10.72
2023-02-12T07:19:17.006Z,10.78
2023-02-12T07:21:44.276Z,10.67
2023-02-12T07:24:12.681Z,10.57
2023-02-12T07:26:42.374Z,10.71
2023-02-12T07:29:09.504Z,10.86
2023-02-12T07:31:36.776Z,11.05
2023-02-12T07:34:03.851Z,11.05
2023-02-12T07:36:33.207Z,11.02
2023-02-12T07:39:01.587Z,11.25
2023-02-12T07:41:32.133Z,11.33
2023-02-12T07:44:07.508Z,11.14
2023-02-12T07:46:38.717Z,11.07
2023-02-12T07:49:12.933Z,10.93
2023-02-12T07:51:42.792Z,11.03
2023-02-12T07:54:14.275Z,10.87
2023-02-12T07:56:43.908Z,11.00
2023-02-12T07:59:16.775Z,11.24
2023-02-12T08:01:51.736Z,11.21
2023-02-12T08:04:23.291Z,11.16
2023-02-12T08:06:54.992Z,11.26
2023-02-12T08:09:28.049Z,11.16
2023-02-12T08:11:57.079Z,11.33
2023-02-12T08:14:24.197Z,11.29
2023-02-12T08:16:52.291Z,11.42
2023-02-12T08:19:26.235Z,11.43
2023-02-12T08:21:57.844Z,11.28
2023-02-12T08:24:25.781Z,11.32
2023-02-12T08:26:53.039Z,11.51
2023-02-12T08:29:26.567Z,11.74
2023-02-12T08:32:02.702Z,11.61
2023-02-12T08:34:34.892Z,11.70
2023-02-12T08:37:06.791Z,11.53
2023-02-12T08:39:33.885Z,11.80
2023-02-12T08:42:05.849Z,12.06
2023-02-12T08:44:35.561Z,11.87
2023-02-12T08:47:06.762Z,11.81
2023-02-12T08:49:38.382Z,11.91
2023-02-12T08:52:08.861Z,11.67
2023-02-12T08:54:40.456Z,11.70
2023-02-12T08:57:07.358Z,11.59
2023-02-12T08:59:34.391Z,11.79
2023-02-12T09:02:02.910Z,11.78
2023-02-12T09:04:30.267Z,11.91
2023-02-12T09:06:57.248Z,12.02
2023-02-12T09:09:24.697Z,12.08
2023-02-12T09:11:51.819Z,11.96
2023-02-12T09:14:23.824Z,11.95
2023-02-12T09:16:55.713Z,11.64
2023-02-12T09:19:23.048Z,11.86
2023-02-12T09:21:57.574Z,11.92
2023-02-12T09:24:30.101Z,12.03
2023-02-12T09:26:57.152Z,11.99
2023-02-12T09:29:24.176Z,12.01
2023-02-12T09:31:51.219Z,11.98
2023-02-12T09:34:20.788Z,12.01
2023-02-12T09:36:47.710Z,12.26
2023-02-12T09:39:14.623Z,12.09
2023-02-12T09:42:12.450Z,11.84
2023-02-12T09:45:18.086Z,12.17
2023-02-12T09:47:58.850Z,12.07
2023-02-12T09:50:43.666Z,12.10
2023-02-12T09:53:21.748Z,12.03
2023-02-12T09:55:55.018Z,12.15
2023-02-12T09:58:59.077Z,12.08
2023-02-12T10:01:29.190Z,11.98
2023-02-12T10:03:59.878Z,12.27
2023-02-12T10:06:37.573Z,12.43
2023-02-12T10:09:47.882Z,12.27
2023-02-12T10:12:25.853Z,12.18
2023-02-12T10:15:09.033Z,12.36
2023-02-12T10:17:45.220Z,12.44
2023-02-12T10:20:32.194Z,12.51
2023-02-12T10:23:46.366Z,12.82
2023-02-12T10:26:40.870Z,12.90
2023-02-12T10:29:32.480Z,13.02
2023-02-12T10:32:27.715Z,13.26
2023-02-12T10:35:00.230Z,13.50
2023-02-12T10:37:40.619Z,13.61
2023-02-12T10:40:32.831Z,13.34
2023-02-12T10:43:01.863Z,13.14
2023-02-12T10:45:40.610Z,12.94
2023-02-12T10:48:12.550Z,13.19
2023-02-12T10:51:08.528Z,13.36
2023-02-12T10:53:43.030Z,13.47
2023-02-12T10:56:12.897Z,13.85
2023-02-12T10:59:00.802Z,13.98
2023-02-12T11:01:38.315Z,13.92
2023-02-12T11:04:31.192Z,13.35
2023-02-12T11:07:05.874Z,13.40
2023-02-12T11:09:46.268Z,13.59
2023-02-12T11:12:42.443Z,13.66
2023-02-12T11:15:24.290Z,13.55
2023-02-12T11:18:05.529Z,13.43
2023-02-12T11:20:55.817Z,13.22
2023-02-12T11:23:36.058Z,13.53
2023-02-12T11:26:20.363Z,13.46
2023-02-12T11:28:55.101Z,13.39
2023-02-12T11:31:28.035Z,13.62
2023-02-12T11:34:17.829Z,13.46
2023-02-12T11:36:52.976Z,13.39
2023-02-12T11:39:36.927Z,13.56
2023-02-12T11:42:15.334Z,13.42
2023-02-12T11:44:49.360Z,13.19
2023-02-12T11:47:24.172Z,13.34
2023-02-12T11:50:05.785Z,13.34
2023-02-12T11:52:37.370Z,13.43
2023-02-12T11:55:22.528Z,13.17
2023-02-12T11:57:53.576Z,13.24
2023-02-12T12:00:29.526Z,13.34
2023-02-12T12:03:46.086Z,13.58
2023-02-12T12:06:38.282Z,13.38
2023-02-12T12:09:29.043Z,13.59
2023-02-12T12:12:21.820Z,13.73
2023-02-12T12:15:20.887Z,13.35
2023-02-12T12:18:19.229Z,13.31
2023-02-12T12:20:57.583Z,13.44
2023-02-12T12:24:06.081Z,13.52
2023-02-12T12:26:34.903Z,13.55
2023-02-12T12:29:26.662Z,13.71
2023-02-12T12:32:05.807Z,13.67
2023-02-12T12:34:34.824Z,13.84
2023-02-12T12:37:33.373Z,13.89
2023-02-12T12:40:42.818Z,13.75
2023-02-12T12:43:12.627Z,14.03
2023-02-12T12:46:31.327Z,13.90
2023-02-12T12:49:33.043Z,13.31
2023-02-12T12:52:28.150Z,13.12
2023-02-12T12:55:19.148Z,13.28
2023-02-12T12:58:13.693Z,13.20
2023-02-12T13:01:01.992Z,13.13
2023-02-12T13:04:25.132Z,13.28
2023-02-12T13:06:54.791Z,13.36
2023-02-12T13:10:06.489Z,13.30
2023-02-12T13:12:50.677Z,13.03
2023-02-12T13:15:53.901Z,13.06
2023-02-12T13:18:48.646Z,13.28
2023-02-12T13:21:37.410Z,13.19
2023-02-12T13:24:46.023Z,13.19
2023-02-12T13:27:20.769Z,13.38
2023-02-12T13:30:01.913Z,13.37
2023-02-12T13:32:40.678Z,13.30
2023-02-12T13:35:13.790Z,13.49
2023-02-12T13:37:45.158Z,13.41
2023-02-12T13:40:23.417Z,13.35
2023-02-12T13:43:15.120Z,13.41
2023-02-12T13:46:12.109Z,13.57
2023-02-12T13:48:50.980Z,13.18
2023-02-12T13:51:38.957Z,13.25
2023-02-12T13:54:14.906Z,13.32
2023-02-12T13:56:48.354Z,13.31
2023-02-12T13:59:34.173Z,13.30
2023-02-12T14:02:05.731Z,12.93
2023-02-12T14:04:59.897Z,13.14
2023-02-12T14:07:49.499Z,13.15
2023-02-12T14:10:42.708Z,13.12
2023-02-12T14:13:22.368Z,13.10
2023-02-12T14:15:57.950Z,13.13
2023-02-12T14:18:35.688Z,13.11
2023-02-12T14:21:11.933Z,13.19
2023-02-12T14:23:44.625Z,13.29
2023-02-12T14:26:36.621Z,13.35
2023-02-12T14:29:17.160Z,13.29
2023-02-12T14:31:44.358Z,13.33
2023-02-12T14:34:11.395Z,13.28
2023-02-12T14:36:49.109Z,13.05
2023-02-12T14:39:24.683Z,12.96
2023-02-12T14:42:15.813Z,13.04
2023-02-12T14:44:56.347Z,13.21
2023-02-12T14:47:31.411Z,13.36
2023-02-12T14:50:12.161Z,13.32
2023-02-12T14:52:44.923Z,13.30
2023-02-12T14:55:24.463Z,13.10
2023-02-12T14:58:00.410Z,13.15
2023-02-12T15:00:31.897Z,13.38
2023-02-12T15:03:31.987Z,13.23
2023-02-12T15:06:21.435Z,13.08
2023-02-12T15:08:56.395Z,13.01
2023-02-12T15:11:45.458Z,13.17
2023-02-12T15:14:35.280Z,13.03
2023-02-12T15:17:16.320Z,13.11
2023-02-12T15:20:02.536Z,13.18
2023-02-12T15:22:42.188Z,13.07
2023-02-12T15:25:29.990Z,13.17
2023-02-12T15:28:19.969Z,13.08
2023-02-12T15:30:47.259Z,13.17
2023-02-12T15:33:30.381Z,12.97
2023-02-12T15:35:58.259Z,13.01
2023-02-12T15:38:41.445Z,13.07
2023-02-12T15:41:14.511Z,13.14
2023-02-12T15:43:43.893Z,13.14
2023-02-12T15:46:18.265Z,13.04
2023-02-12T15:48:45.627Z,13.02
2023-02-12T15:51:34.990Z,13.11
2023-02-12T15:54:07.186Z,12.79
2023-02-12T15:56:41.323Z,12.95
2023-02-12T15:59:22.167Z,12.85
2023-02-12T16:02:05.673Z,12.69
2023-02-12T16:04:42.021Z,12.68
2023-02-12T16:07:13.357Z,12.80
2023-02-12T16:09:44.818Z,12.87
2023-02-12T16:12:17.538Z,12.81
2023-02-12T16:14:59.108Z,12.70
2023-02-12T16:17:26.147Z,12.67
2023-02-12T16:19:58.264Z,12.64
2023-02-12T16:22:34.579Z,12.56
2023-02-12T16:25:02.652Z,12.63
2023-02-12T16:27:35.264Z,12.44
2023-02-12T16:30:24.937Z,12.54
2023-02-12T16:32:52.525Z,12.48
2023-02-12T16:35:19.473Z,12.54
2023-02-12T16:37:56.577Z,12.42
2023-02-12T16:40:28.852Z,12.58
2023-02-12T16:42:58.553Z,12.65
2023-02-12T16:45:28.874Z,12.52
2023-02-12T16:48:08.444Z,12.46
2023-02-12T16:50:39.506Z,12.43
2023-02-12T16:53:31.527Z,12.36
2023-02-12T16:56:00.384Z,12.49
2023-02-12T16:58:29.895Z,12.43
2023-02-12T17:01:06.785Z,12.49
2023-02-12T17:03:35.008Z,12.25
2023-02-12T17:06:04.701Z,12.24
2023-02-12T17:08:34.002Z,12.17
2023-02-12T17:11:01.051Z,12.27
2023-02-12T17:13:28.157Z,12.35
2023-02-12T17:16:06.590Z,12.29
2023-02-12T17:18:35.891Z,12.31
2023-02-12T17:21:09.695Z,12.20
2023-02-12T17:23:41.203Z,12.34
2023-02-12T17:26:09.820Z,12.33
2023-02-12T17:28:36.947Z,12.23
2023-02-12T17:31:06.302Z,12.23
2023-02-12T17:33:33.426Z,12.15
2023-02-12T17:36:00.733Z,12.12
2023-02-12T17:38:28.022Z,12.14
2023-02-12T17:40:57.942Z,12.14
2023-02-12T17:43:27.830Z,12.03
2023-02-12T17:45:55.262Z,11.97
2023-02-12T17:48:25.002Z,12.09
2023-02-12T17:51:05.384Z,12.10
2023-02-12T17:53:32.669Z,11.86
2023-02-12T17:56:02.809Z,12.09
2023-02-12T17:58:29.860Z,11.96
2023-02-12T18:00:57.346Z,11.96
2023-02-12T18:03:24.700Z,11.92
2023-02-12T18:05:51.752Z,11.82
2023-02-12T18:08:18.687Z,11.91
2023-02-12T18:10:48.114Z,11.84
2023-02-12T18:13:17.264Z,12.02
2023-02-12T18:15:46.587Z,12.03
2023-02-12T18:18:13.907Z,12.03
2023-02-12T18:20:41.278Z,11.92
2023-02-12T18:23:08.831Z,12.04
2023-02-12T18:25:50.264Z,12.07
2023-02-12T18:28:17.176Z,12.04
2023-02-12T18:30:44.322Z,11.98
2023-02-12T18:33:13.042Z,12.13
2023-02-12T18:35:41.724Z,12.11
2023-02-12T18:38:08.679Z,11.95
2023-02-12T18:40:35.686Z,11.99
2023-02-12T18:43:02.591Z,11.94
2023-02-12T18:45:31.966Z,11.78
2023-02-12T18:48:01.304Z,11.71
2023-02-12T18:50:28.847Z,11.86
2023-02-12T18:52:58.417Z,11.85
2023-02-12T18:55:25.322Z,11.94
2023-02-12T18:57:54.786Z,11.83
2023-02-12T19:00:22.197Z,11.88
2023-02-12T19:02:49.094Z,11.90
2023-02-12T19:05:18.688Z,11.74
2023-02-12T19:07:48.679Z,11.62
2023-02-12T19:10:18.416Z,11.48
2023-02-12T19:12:49.312Z,11.58
2023-02-12T19:15:20.312Z,11.27
2023-02-12T19:17:50.202Z,11.32
2023-02-12T19:20:17.150Z,11.39
2023-02-12T19:22:46.409Z,11.48
2023-02-12T19:25:13.514Z,11.40
2023-02-12T19:27:43.488Z,11.58
2023-02-12T19:30:13.338Z,11.54
2023-02-12T19:32:40.641Z,11.49
2023-02-12T19:35:07.704Z,11.39
2023-02-12T19:37:34.673Z,11.57
2023-02-12T19:40:03.680Z,11.44
2023-02-12T19:42:31.786Z,11.46
2023-02-12T19:44:59.345Z,11.57
2023-02-12T19:47:26.874Z,11.69
2023-02-12T19:49:56.709Z,11.67
2023-02-12T19:52:27.032Z,11.50
2023-02-12T19:54:54.309Z,11.57
2023-02-12T19:57:21.202Z,11.50
2023-02-12T19:59:51.078Z,11.55
2023-02-12T20:02:20.809Z,11.66
2023-02-12T20:04:50.207Z,11.69
2023-02-12T20:07:17.114Z,11.78
2023-02-12T20:09:44.196Z,11.78
2023-02-12T20:12:11.212Z,11.81
2023-02-12T20:14:38.135Z,11.74
2023-02-12T20:17:05.874Z,11.83
2023-02-12T20:19:37.130Z,11.60
2023-02-12T20:22:07.011Z,11.60
2023-02-12T20:24:35.383Z,11.72
2023-02-12T20:27:06.020Z,11.86
2023-02-12T20:29:37.217Z,11.49
2023-02-12T20:32:05.045Z,11.40
2023-02-12T20:34:39.796Z,11.33
2023-02-12T20:37:17.224Z,11.45
2023-02-12T20:39:47.979Z,11.48
2023-02-12T20:42:14.907Z,11.62
2023-02-12T20:44:41.826Z,11.56
2023-02-12T20:47:08.672Z,11.71
2023-02-12T20:49:39.028Z,11.62
2023-02-12T20:52:08.359Z,11.67
2023-02-12T20:54:35.280Z,11.62
2023-02-12T20:57:06.685Z,11.61
2023-02-12T20:59:34.679Z,11.53
2023-02-12T21:02:01.572Z,11.58
2023-02-12T21:04:32.226Z,11.60
2023-02-12T21:07:02.274Z,11.60
2023-02-12T21:09:30.440Z,11.56
2023-02-12T21:12:01.878Z,11.57
2023-02-12T21:14:28.762Z,11.51
2023-02-12T21:16:57.062Z,11.57
2023-02-12T21:19:27.094Z,11.66
2023-02-12T21:21:55.447Z,11.68
2023-02-12T21:24:28.607Z,11.64
2023-02-12T21:26:58.684Z,11.60
2023-02-12T21:29:27.465Z,11.60
2023-02-12T21:31:54.988Z,11.39
2023-02-12T21:34:23.708Z,11.42
2023-02-12T21:36:57.188Z,11.31
2023-02-12T21:39:27.750Z,11.49
2023-02-12T21:41:59.912Z,11.54
2023-02-12T21:44:27.290Z,11.54
2023-02-12T21:46:56.775Z,11.57
2023-02-12T21:49:27.866Z,11.64
2023-02-12T21:52:05.931Z,11.51
2023-02-12T21:54:35.868Z,11.56
2023-02-12T21:57:05.203Z,11.54
2023-02-12T21:59:32.654Z,11.30
2023-02-12T22:02:00.602Z,11.43
2023-02-12T22:04:27.997Z,11.46
2023-02-12T22:06:56.424Z,11.51
2023-02-12T22:09:25.895Z,11.62
2023-02-12T22:11:53.039Z,11.70
2023-02-12T22:14:27.177Z,11.62
2023-02-12T22:16:56.561Z,11.60
2023-02-12T22:19:25.926Z,11.58
2023-02-12T22:21:55.035Z,11.59
2023-02-12T22:24:26.504Z,11.36
2023-02-12T22:26:57.257Z,11.59
2023-02-12T22:29:26.905Z,11.61
2023-02-12T22:31:53.973Z,11.61
2023-02-12T22:34:20.933Z,11.61
2023-02-12T22:36:48.195Z,11.61
2023-02-12T22:39:22.407Z,11.59
2023-02-12T22:41:49.721Z,11.70
2023-02-12T22:44:18.921Z,11.74
2023-02-12T22:46:48.799Z,11.81
2023-02-12T22:49:16.967Z,11.80
2023-02-12T22:51:43.873Z,11.77
2023-02-12T22:54:17.812Z,11.76
2023-02-12T22:56:50.135Z,11.66
2023-02-12T22:59:17.353Z,11.71
2023-02-12T23:01:46.860Z,11.63
2023-02-12T23:04:23.935Z,11.59
2023-02-12T23:06:51.394Z,11.65
2023-02-12T23:09:19.827Z,11.51
2023-02-12T23:11:48.237Z,11.46
2023-02-12T23:14:15.653Z,11.49
2023-02-12T23:16:42.842Z,11.32
2023-02-12T23:19:11.101Z,11.39
2023-02-12T23:21:38.851Z,11.30
2023-02-12T23:24:06.395Z,11.44
2023-02-12T23:26:33.429Z,11.37
2023-02-12T23:29:02.629Z,11.09
2023-02-12T23:31:30.003Z,11.17
2023-02-12T23:33:57.076Z,11.38
2023-02-12T23:36:28.194Z,11.38
2023-02-12T23:39:06.025Z,11.42
2023-02-12T23:41:37.777Z,11.51
2023-02-12T23:44:04.986Z,11.47
2023-02-12T23:46:32.125Z,11.33
2023-02-12T23:48:59.214Z,11.41
2023-02-12T23:51:26.557Z,11.46
2023-02-12T23:53:55.694Z,11.49
2023-02-12T23:56:23.396Z,11.42
2023-02-12T23:58:50.417Z,11.44
